Time;durP1;ratioP1;P1;durP2;ratioP2;P2;SDS_P1;SDS_P2;PMS_P1;PMS_P2;Temp;Humidity;BMP_temperature;BMP_pressure;BME280_temperature;BME280_humidity;BME280_pressure;Samples;Min_cycle;Max_cycle;Signal;HPM_P1;HPM_P2
2022/07/21 00:00:23;;;;;;;18.65;12.32;;;;;;;20.46;100.00;101739.69;2615162;36;20102;-48
2022/07/21 00:02:52;;;;;;;17.38;12.40;;;;;;;20.42;100.00;101738.34;2613005;31;20034;-55
2022/07/21 00:05:21;;;;;;;18.08;12.15;;;;;;;20.48;100.00;101735.75;2614585;36;20539;-49
2022/07/21 00:07:49;;;;;;;15.80;12.48;;;;;;;20.54;100.00;101730.59;2614884;36;20591;-51
2022/07/21 00:10:18;;;;;;;17.88;12.13;;;;;;;20.64;100.00;101721.13;2614357;36;20041;-48
2022/07/21 00:12:49;;;;;;;16.52;11.05;;;;;;;20.72;100.00;101731.19;2614567;36;20042;-57
2022/07/21 00:15:20;;;;;;;15.93;10.02;;;;;;;20.47;100.00;101735.94;2615334;36;20042;-50
2022/07/21 00:17:48;;;;;;;13.25;8.95;;;;;;;20.35;100.00;101726.47;2614084;36;20042;-49
2022/07/21 00:20:19;;;;;;;12.93;9.27;;;;;;;20.31;100.00;101713.13;2614575;31;20042;-49
2022/07/21 00:22:47;;;;;;;14.15;9.15;;;;;;;20.39;100.00;101712.25;2615048;36;21338;-50
2022/07/21 00:25:17;;;;;;;11.82;8.95;;;;;;;20.49;100.00;101717.47;2614784;36;20052;-51
2022/07/21 00:27:46;;;;;;;12.38;9.10;;;;;;;20.49;100.00;101722.94;2614586;36;20444;-50
2022/07/21 00:30:17;;;;;;;12.27;9.13;;;;;;;20.49;100.00;101728.41;2614186;36;20035;-52
2022/07/21 00:32:46;;;;;;;13.73;9.02;;;;;;;20.47;100.00;101739.50;2614671;36;20038;-55
2022/07/21 00:35:14;;;;;;;;;;;;;;;20.45;100.00;101727.03;2614679;31;20035;-48
2022/07/21 00:37:43;;;;;;;12.80;8.37;;;;;;;20.41;100.00;101728.47;2613864;36;19951;-54
2022/07/21 00:40:14;;;;;;;12.65;8.90;;;;;;;20.40;100.00;101724.84;2614950;36;20579;-53
2022/07/21 00:42:44;;;;;;;12.98;9.20;;;;;;;20.45;100.00;101727.91;2614923;36;20057;-48
2022/07/21 00:45:14;;;;;;;12.20;8.50;;;;;;;20.25;100.00;101722.03;2615224;36;20059;-54
2022/07/21 00:47:45;;;;;;;10.07;8.55;;;;;;;20.33;100.00;101731.22;2614372;31;20448;-47
2022/07/21 00:50:17;;;;;;;14.30;9.35;;;;;;;20.31;100.00;101726.78;2614396;36;20566;-51
2022/07/21 00:52:47;;;;;;;14.55;9.57;;;;;;;20.22;100.00;101727.03;2614159;36;20046;-50
2022/07/21 00:55:18;;;;;;;12.93;10.02;;;;;;;20.14;100.00;101736.13;2614454;36;20065;-51
2022/07/21 00:57:47;;;;;;;15.63;9.63;;;;;;;20.16;100.00;101739.53;2614715;31;20046;-48
2022/07/21 01:00:18;;;;;;;15.43;10.68;;;;;;;20.24;100.00;101728.56;2614558;36;20037;-49
2022/07/21 01:02:49;;;;;;;14.15;9.70;;;;;;;20.23;100.00;101729.59;2612922;36;20619;-51
2022/07/21 01:05:19;;;;;;;13.70;9.98;;;;;;;20.37;100.00;101740.78;2614690;36;20053;-51
2022/07/21 01:07:49;;;;;;;17.88;12.00;;;;;;;20.25;100.00;101727.50;2613998;31;20558;-50
2022/07/21 01:10:19;;;;;;;17.17;12.50;;;;;;;20.24;100.00;101724.97;2614675;31;20077;-49
2022/07/21 01:12:48;;;;;;;18.80;12.52;;;;;;;20.16;100.00;101733.22;2614813;36;20034;-53
2022/07/21 01:15:18;;;;;;;17.27;12.55;;;;;;;20.13;100.00;101726.22;2615228;36;20034;-53
2022/07/21 01:17:50;;;;;;;21.48;14.27;;;;;;;20.10;100.00;101715.66;2614255;36;20088;-56
2022/07/21 01:20:21;;;;;;;21.85;14.30;;;;;;;19.95;100.00;101715.53;2615181;31;20603;-51
2022/07/21 01:22:53;;;;;;;19.55;14.05;;;;;;;20.01;100.00;101706.63;2614930;36;20030;-48
2022/07/21 01:25:22;;;;;;;19.55;13.38;;;;;;;20.06;100.00;101706.09;2615186;36;20053;-53
2022/07/21 01:27:50;;;;;;;16.25;12.48;;;;;;;20.10;100.00;101701.97;2615390;36;20582;-51
2022/07/21 01:30:19;;;;;;;18.88;13.57;;;;;;;20.03;100.00;101695.53;2615784;36;20030;-53
2022/07/21 01:32:48;;;;;;;19.52;12.95;;;;;;;19.99;100.00;101705.09;2615563;36;20029;-47
2022/07/21 01:35:17;;;;;;;18.58;12.93;;;;;;;20.12;100.00;101688.97;2615123;31;20030;-51
2022/07/21 01:37:48;;;;;;;18.23;12.82;;;;;;;20.17;100.00;101692.03;2615499;36;20584;-54
2022/07/21 01:43:01;;;;;;;14.88;11.60;;;;;;;20.11;100.00;101690.00;2615396;36;20050;-48
2022/07/21 01:45:30;;;;;;;15.98;11.98;;;;;;;20.04;100.00;101694.50;2615433;36;20034;-53
2022/07/21 01:47:58;;;;;;;;;;;;;;;20.12;100.00;101694.44;2614984;36;20046;-52
2022/07/21 01:50:29;;;;;;;15.97;11.93;;;;;;;20.17;100.00;101694.78;2615254;36;19959;-48
2022/07/21 01:52:58;;;;;;;16.25;11.20;;;;;;;20.13;100.00;101683.31;2615621;36;20030;-53
2022/07/21 01:55:29;;;;;;;;;;;;;;;20.12;100.00;101688.97;2615334;36;20158;-51
2022/07/21 01:57:57;;;;;;;16.85;11.35;;;;;;;19.90;100.00;101686.00;2615631;36;19945;-52
2022/07/21 02:00:25;;;;;;;16.35;11.35;;;;;;;19.93;100.00;101696.59;2615294;36;20564;-50
2022/07/21 02:02:54;;;;;;;16.15;10.93;;;;;;;19.90;100.00;101685.16;2614115;36;20068;-52
2022/07/21 02:05:23;;;;;;;14.68;10.20;;;;;;;19.90;100.00;101680.53;2615680;31;20517;-53
2022/07/21 02:07:51;;;;;;;12.00;9.23;;;;;;;19.95;100.00;101683.59;2615260;36;20029;-50
2022/07/21 02:10:19;;;;;;;13.57;10.45;;;;;;;19.85;100.00;101690.31;2615468;36;20066;-47
2022/07/21 02:12:51;;;;;;;15.10;10.73;;;;;;;19.80;100.00;101695.44;2615662;36;20554;-49
2022/07/21 02:15:19;;;;;;;13.27;10.02;;;;;;;19.64;100.00;101696.31;2616262;36;20882;-53
2022/07/21 02:17:47;;;;;;;15.75;11.20;;;;;;;19.58;100.00;101682.34;2615334;36;20046;-48
2022/07/21 02:20:15;;;;;;;16.63;10.80;;;;;;;19.53;100.00;101690.19;2614777;36;20484;-49
2022/07/21 02:22:45;;;;;;;15.05;10.95;;;;;;;19.59;100.00;101689.50;2615796;31;20038;-49
2022/07/21 02:25:14;;;;;;;13.60;9.60;;;;;;;19.56;100.00;101689.84;2614749;36;20052;-52
2022/07/21 02:27:42;;;;;;;19.90;10.77;;;;;;;19.51;100.00;101689.53;2614704;36;20080;-54
2022/07/21 02:30:15;;;;;;;12.85;9.55;;;;;;;19.44;100.00;101691.25;2614802;36;20555;-53
2022/07/21 02:32:43;;;;;;;12.70;9.38;;;;;;;19.52;100.00;101688.53;2614975;36;20075;-49
2022/07/21 02:35:12;;;;;;;15.63;10.73;;;;;;;19.43;100.00;101682.22;2614224;36;20038;-51
2022/07/21 02:37:40;;;;;;;14.07;9.88;;;;;;;19.39;100.00;101682.72;2615696;36;20412;-50
2022/07/21 02:40:10;;;;;;;13.23;9.48;;;;;;;19.37;100.00;101684.78;2614909;36;20182;-53
2022/07/21 02:42:39;;;;;;;12.25;9.55;;;;;;;19.39;100.00;101677.25;2615669;36;20030;-51
2022/07/21 02:45:08;;;;;;;13.93;10.25;;;;;;;19.43;100.00;101679.50;2615334;36;20026;-49
2022/07/21 02:47:55;;;;;;;13.43;10.30;;;;;;;19.29;100.00;101672.03;2615027;36;20034;-56
2022/07/21 02:50:25;;;;;;;14.35;10.43;;;;;;;19.24;100.00;101672.53;2614833;31;20602;-48
2022/07/21 02:52:57;;;;;;;12.63;9.93;;;;;;;19.12;100.00;101663.00;2615521;36;20034;-50
2022/07/21 02:55:26;;;;;;;12.85;9.95;;;;;;;19.14;100.00;101671.88;2615274;36;20090;-50
2022/07/21 02:58:06;;;;;;;14.75;10.77;;;;;;;18.98;100.00;101663.72;2614846;36;20038;-51
2022/07/21 03:00:35;;;;;;;12.88;9.60;;;;;;;18.95;100.00;101661.31;2615778;36;20443;-52
2022/07/21 03:03:06;;;;;;;;;;;;;;;18.96;100.00;101661.13;2614840;36;20050;-50
2022/07/21 03:05:35;;;;;;;13.18;9.93;;;;;;;19.00;100.00;101661.66;2614500;36;19958;-49
2022/07/21 03:08:04;;;;;;;14.27;10.05;;;;;;;18.96;100.00;101660.28;2615218;36;20041;-49
2022/07/21 03:10:33;;;;;;;13.85;9.48;;;;;;;18.93;100.00;101666.09;2615140;36;20062;-52
2022/07/21 03:13:01;;;;;;;13.32;9.35;;;;;;;18.85;100.00;101656.84;2615109;36;20035;-50
2022/07/21 03:15:30;;;;;;;14.90;10.27;;;;;;;18.85;100.00;101659.59;2614759;36;20085;-50
2022/07/21 03:17:59;;;;;;;12.75;9.52;;;;;;;18.99;100.00;101659.94;2615068;36;20057;-49
2022/07/21 03:20:32;;;;;;;12.73;9.90;;;;;;;18.91;100.00;101652.63;2615011;36;20057;-51
2022/07/21 03:23:01;;;;;;;13.77;10.73;;;;;;;18.91;100.00;101652.63;2614815;36;20064;-52
2022/07/21 03:25:30;;;;;;;;;;;;;;;18.82;100.00;101653.63;2615340;36;20102;-52
2022/07/21 03:27:58;;;;;;;14.53;10.23;;;;;;;18.88;100.00;101656.53;2614839;36;19953;-50
2022/07/21 03:30:28;;;;;;;16.85;12.10;;;;;;;18.77;100.00;101650.56;2615203;31;20065;-53
2022/07/21 03:32:57;;;;;;;17.80;11.57;;;;;;;18.72;100.00;101651.06;2615070;31;20058;-50
2022/07/21 03:35:25;;;;;;;17.13;12.55;;;;;;;18.75;100.00;101658.91;2614341;36;20050;-53
2022/07/21 03:37:58;;;;;;;16.15;11.13;;;;;;;18.81;100.00;101658.22;2615181;36;20038;-50
2022/07/21 03:40:28;;;;;;;18.65;12.02;;;;;;;18.76;100.00;101654.28;2615790;31;20583;-49
2022/07/21 03:42:59;;;;;;;21.42;12.90;;;;;;;18.80;100.00;101650.22;2614784;36;20035;-48
2022/07/21 03:45:30;;;;;;;17.20;11.93;;;;;;;18.80;100.00;101647.47;2615061;36;20073;-49
2022/07/21 03:47:59;;;;;;;20.60;12.43;;;;;;;18.81;100.00;101654.66;2614599;36;20034;-52
2022/07/21 03:50:28;;;;;;;17.10;11.90;;;;;;;18.82;100.00;101650.91;2615017;36;20045;-51
2022/07/21 03:52:59;;;;;;;18.23;12.13;;;;;;;18.82;100.00;101654.47;2615233;36;20578;-49
2022/07/21 03:55:27;;;;;;;16.25;11.63;;;;;;;18.81;100.00;101658.22;2615146;36;20027;-49
2022/07/21 03:57:59;;;;;;;16.42;11.38;;;;;;;18.90;100.00;101659.09;2614811;36;20030;-52
2022/07/21 04:00:29;;;;;;;17.08;12.32;;;;;;;18.81;100.00;101662.84;2614701;36;20996;-51
2022/07/21 04:02:59;;;;;;;17.40;11.13;;;;;;;18.85;100.00;101675.94;2614814;36;20034;-54
2022/07/21 04:05:28;;;;;;;17.52;12.80;;;;;;;18.81;100.00;101674.59;2614778;36;20085;-49
2022/07/21 04:08:00;;;;;;;18.20;12.65;;;;;;;18.86;100.00;101669.50;2614560;36;20038;-51
2022/07/21 04:10:31;;;;;;;19.17;12.98;;;;;;;18.82;100.00;101676.28;2615321;36;20042;-50
2022/07/21 04:13:01;;;;;;;20.35;12.75;;;;;;;18.85;100.00;101667.78;2615194;36;20034;-50
2022/07/21 04:15:29;;;;;;;21.42;15.05;;;;;;;18.83;100.00;101671.69;2614878;36;20035;-50
2022/07/21 04:17:58;;;;;;;20.70;14.07;;;;;;;18.83;100.00;101672.56;2614994;36;20034;-49
2022/07/21 04:20:29;;;;;;;19.00;13.52;;;;;;;18.89;100.00;101666.44;2615081;36;20034;-52
2022/07/21 04:23:00;;;;;;;24.20;13.93;;;;;;;18.78;100.00;101674.09;2615543;36;20030;-50
2022/07/21 04:25:29;;;;;;;25.85;15.55;;;;;;;18.85;100.00;101675.94;2614538;36;20057;-48
2022/07/21 04:27:59;;;;;;;23.10;15.18;;;;;;;18.87;100.00;101679.41;2614944;36;20045;-48
2022/07/21 04:30:27;;;;;;;26.40;15.52;;;;;;;18.76;100.00;101687.03;2614692;36;20080;-50
2022/07/21 04:32:56;;;;;;;21.52;13.98;;;;;;;18.80;100.00;101672.91;2615542;31;20510;-50
2022/07/21 04:35:24;;;;;;;23.00;15.10;;;;;;;18.81;100.00;101668.28;2614549;36;20061;-51
2022/07/21 04:37:53;;;;;;;25.67;15.63;;;;;;;18.69;100.00;101665.88;2614435;36;20022;-52
2022/07/21 04:40:24;;;;;;;25.60;16.02;;;;;;;18.78;100.00;101674.94;2615092;31;20041;-54
2022/07/21 04:42:52;;;;;;;26.45;16.75;;;;;;;18.82;100.00;101670.84;2614833;36;20034;-53
2022/07/21 04:45:20;;;;;;;24.40;16.42;;;;;;;18.77;100.00;101667.78;2614921;36;20046;-54
2022/07/21 04:47:52;;;;;;;25.08;16.90;;;;;;;18.73;100.00;101671.88;2614165;36;20034;-51
2022/07/21 04:50:22;;;;;;;24.48;15.60;;;;;;;18.82;100.00;101659.94;2615258;36;20041;-48
2022/07/21 04:52:51;;;;;;;25.30;17.45;;;;;;;18.89;100.00;101665.59;2615880;31;20030;-50
2022/07/21 04:55:20;;;;;;;23.45;15.57;;;;;;;18.86;100.00;101663.19;2614880;36;21142;-53
2022/07/21 04:57:51;;;;;;;;;;;;;;;18.87;100.00;101662.16;2616003;36;20071;-50
2022/07/21 05:00:22;;;;;;;25.35;16.65;;;;;;;18.84;100.00;101666.06;2615545;36;19963;-48
2022/07/21 05:02:50;;;;;;;25.85;17.45;;;;;;;18.95;100.00;101670.38;2615967;31;20611;-52
2022/07/21 05:05:19;;;;;;;31.20;17.95;;;;;;;18.85;100.00;101664.19;2615350;36;20409;-51
2022/07/21 05:07:47;;;;;;;27.88;17.73;;;;;;;18.83;100.00;101660.78;2615811;36;20296;-48
2022/07/21 05:10:17;;;;;;;29.80;18.02;;;;;;;18.79;100.00;101664.88;2615085;36;20159;-52
2022/07/21 05:12:46;;;;;;;28.98;18.08;;;;;;;18.91;100.00;101658.94;2615567;36;20030;-47
2022/07/21 05:15:17;;;;;;;26.73;18.05;;;;;;;19.03;100.00;101666.78;2615394;36;20038;-50
2022/07/21 05:17:46;;;;;;;28.75;18.38;;;;;;;19.16;100.00;101667.09;2615428;36;20034;-48
2022/07/21 05:20:14;;;;;;;28.80;18.00;;;;;;;19.09;100.00;101657.88;2615218;36;20035;-54
2022/07/21 05:22:43;;;;;;;28.58;18.65;;;;;;;19.29;100.00;101662.97;2615979;36;20034;-49
2022/07/21 05:25:11;;;;;;;27.45;17.63;;;;;;;19.40;100.00;101657.13;2615236;36;20057;-53
2022/07/21 05:27:40;;;;;;;25.45;16.33;;;;;;;19.43;100.00;101654.94;2615611;36;20038;-48
2022/07/21 05:30:12;;;;;;;26.30;18.48;;;;;;;19.37;100.00;101652.88;2614679;36;20038;-50
2022/07/21 05:32:44;;;;;;;28.77;18.00;;;;;;;19.29;100.00;101649.31;2614071;36;20142;-50
2022/07/21 05:35:13;;;;;;;25.95;17.55;;;;;;;19.21;100.00;101647.47;2615168;31;20038;-52
2022/07/21 05:37:42;;;;;;;28.02;18.30;;;;;;;19.04;100.00;101638.47;2616290;31;20646;-51
2022/07/21 05:40:12;;;;;;;29.70;18.60;;;;;;;18.94;100.00;101641.38;2615180;36;20061;-49
2022/07/21 05:42:40;;;;;;;32.25;19.85;;;;;;;19.05;100.00;101637.44;2615469;36;20061;-50
2022/07/21 05:45:10;;;;;;;28.35;18.73;;;;;;;19.30;100.00;101642.84;2615658;31;20459;-49
2022/07/21 05:47:38;;;;;;;31.05;19.70;;;;;;;19.11;100.00;101636.75;2615243;36;20039;-49
2022/07/21 05:50:11;;;;;;;30.33;19.95;;;;;;;18.98;100.00;101644.63;2614969;36;20069;-51
2022/07/21 05:52:39;;;;;;;29.92;18.88;;;;;;;18.96;100.00;101643.94;2616055;36;20061;-49
2022/07/21 05:55:09;;;;;;;33.17;20.48;;;;;;;19.05;100.00;101632.84;2614769;36;20053;-52
2022/07/21 05:57:38;;;;;;;34.17;20.80;;;;;;;19.23;100.00;101629.91;2615516;36;20041;-49
2022/07/21 06:00:07;;;;;;;;;;;;;;;19.32;100.00;101630.72;2615496;36;20571;-49
2022/07/21 06:02:36;;;;;;;37.47;22.67;;;;;;;19.35;100.00;101621.34;2614730;36;19955;-54
2022/07/21 06:05:06;;;;;;;32.97;20.98;;;;;;;19.32;100.00;101616.25;2616006;36;20484;-50
2022/07/21 06:07:37;;;;;;;36.03;22.02;;;;;;;19.22;100.00;101614.53;2615764;36;20034;-49
2022/07/21 06:10:06;;;;;;;38.28;22.05;;;;;;;19.20;100.00;101613.88;2615656;36;20027;-49
2022/07/21 06:12:34;;;;;;;;;;;;;;;19.04;100.00;101606.56;2616049;36;20045;-48
2022/07/21 06:15:02;;;;;;;42.40;24.23;;;;;;;19.01;100.00;101608.81;2615695;36;19948;-49
2022/07/21 06:17:32;;;;;;;41.55;24.15;;;;;;;19.03;100.00;101607.59;2615464;36;20030;-49
2022/07/21 06:20:04;;;;;;;41.63;24.00;;;;;;;19.01;100.00;101597.91;2615688;36;20590;-48
2022/07/21 06:22:32;;;;;;;42.50;23.55;;;;;;;18.99;100.00;101608.13;2615927;31;20053;-49
2022/07/21 06:25:03;;;;;;;38.28;23.02;;;;;;;19.10;100.00;101605.03;2614788;36;20034;-49
2022/07/21 06:27:32;;;;;;;44.95;25.33;;;;;;;19.22;100.00;101602.78;2615254;36;20034;-53
2022/07/21 06:30:00;;;;;;;41.22;25.05;;;;;;;19.27;100.00;101614.00;2615686;31;20034;-52
2022/07/21 06:32:29;;;;;;;45.58;25.95;;;;;;;19.25;100.00;101613.34;2614804;36;20030;-50
2022/07/21 06:34:57;;;;;;;42.35;24.95;;;;;;;19.49;100.00;101617.84;2615018;36;20059;-48
2022/07/21 06:37:25;;;;;;;43.28;24.13;;;;;;;19.40;100.00;101621.66;2614603;36;20034;-49
2022/07/21 06:39:54;;;;;;;44.85;26.02;;;;;;;19.31;100.00;101622.72;2615916;36;20034;-51
2022/07/21 06:42:24;;;;;;;40.50;25.10;;;;;;;19.42;100.00;101622.34;2615219;36;20407;-49
2022/07/21 06:44:53;;;;;;;38.50;23.90;;;;;;;19.35;100.00;101626.81;2615849;36;20046;-55
2022/07/21 06:47:21;;;;;;;42.67;25.20;;;;;;;19.44;100.00;101623.84;2615029;36;20038;-49
2022/07/21 06:49:49;;;;;;;42.55;25.60;;;;;;;19.52;100.00;101627.56;2615879;31;20035;-47
2022/07/21 06:52:18;;;;;;;41.03;24.42;;;;;;;19.44;100.00;101642.97;2615046;31;20038;-49
2022/07/21 06:54:46;;;;;;;38.75;23.58;;;;;;;19.63;100.00;101638.13;2615171;36;20031;-49
2022/07/21 06:57:15;;;;;;;40.25;24.17;;;;;;;19.53;100.00;101648.41;2614057;36;20030;-50
2022/07/21 06:59:46;;;;;;;37.53;23.00;;;;;;;19.57;100.00;101645.13;2615134;36;20682;-51
2022/07/21 07:02:14;;;;;;;40.97;23.30;;;;;;;19.59;100.00;101662.19;2614427;36;20034;-55
2022/07/21 07:04:43;;;;;;;37.75;23.15;;;;;;;19.63;100.00;101670.91;2615422;36;20030;-50
2022/07/21 07:07:11;;;;;;;42.58;24.77;;;;;;;19.80;100.00;101668.97;2614922;36;20061;-50
2022/07/21 07:09:40;;;;;;;38.33;24.13;;;;;;;19.90;100.00;101675.06;2615072;36;20030;-49
2022/07/21 07:12:10;;;;;;;40.60;24.55;;;;;;;20.00;100.00;101674.03;2614917;36;20069;-51
2022/07/21 07:14:39;;;;;;;38.15;23.25;;;;;;;20.31;100.00;101677.56;2615794;36;20439;-47
2022/07/21 07:17:10;;;;;;;38.58;24.58;;;;;;;20.21;100.00;101685.16;2615167;36;20444;-52
2022/07/21 07:19:39;;;;;;;37.80;22.65;;;;;;;20.12;100.00;101686.25;2615809;36;20613;-52
2022/07/21 07:22:07;;;;;;;39.92;25.17;;;;;;;20.19;100.00;101689.13;2614897;36;20030;-49
2022/07/21 07:24:35;;;;;;;38.47;24.92;;;;;;;20.12;100.00;101686.25;2615712;31;20035;-51
2022/07/21 07:27:04;;;;;;;41.42;24.30;;;;;;;20.09;100.00;101703.84;2614340;31;20027;-48
2022/07/21 07:29:32;;;;;;;42.70;25.15;;;;;;;20.02;100.00;101699.28;2615340;36;20042;-49
2022/07/21 07:32:00;;;;;;;41.08;25.40;;;;;;;19.98;100.00;101695.19;2614784;36;20068;-49
2022/07/21 07:34:31;;;;;;;42.30;26.00;;;;;;;20.09;100.00;101694.81;2616314;31;20071;-54
2022/07/21 07:36:59;;;;;;;40.28;24.38;;;;;;;19.99;100.00;101689.53;2614874;36;20065;-48
2022/07/21 07:39:28;;;;;;;40.58;25.00;;;;;;;19.98;100.00;101687.00;2615680;36;20034;-50
2022/07/21 07:41:57;;;;;;;41.45;25.38;;;;;;;20.04;100.00;101680.84;2615621;36;20072;-51
2022/07/21 07:44:25;;;;;;;;;;;;;;;20.08;100.00;101677.56;2615227;36;20058;-52
2022/07/21 07:46:53;;;;;;;36.90;23.20;;;;;;;19.95;100.00;101667.19;2614394;36;19969;-51
2022/07/21 07:49:22;;;;;;;36.50;23.40;;;;;;;19.98;100.00;101666.00;2615641;36;20067;-52
2022/07/21 07:51:53;;;;;;;40.67;23.33;;;;;;;20.13;100.00;101652.44;2615266;36;20037;-52
2022/07/21 07:54:21;;;;;;;40.85;23.48;;;;;;;20.40;100.00;101642.84;2614913;36;20065;-52
2022/07/21 07:56:49;;;;;;;37.08;23.13;;;;;;;20.63;100.00;101647.47;2614398;36;20077;-51
2022/07/21 07:59:18;;;;;;;38.13;24.02;;;;;;;20.68;100.00;101636.00;2615285;36;20064;-50
2022/07/21 08:01:46;;;;;;;34.17;20.67;;;;;;;20.55;100.00;101645.63;2613076;36;20034;-55
2022/07/21 08:04:15;;;;;;;37.42;23.40;;;;;;;20.81;100.00;101647.16;2614189;36;20057;-52
2022/07/21 08:06:43;;;;;;;27.85;20.02;;;;;;;20.78;100.00;101639.31;2614658;36;20045;-52
2022/07/21 08:09:15;;;;;;;36.22;22.25;;;;;;;20.83;100.00;101648.69;2613579;36;20061;-52
2022/07/21 08:11:46;;;;;;;35.90;22.55;;;;;;;20.74;100.00;101657.13;2614241;36;20042;-49
2022/07/21 08:14:14;;;;;;;34.40;21.75;;;;;;;20.87;100.00;101654.63;2615583;36;20125;-53
2022/07/21 08:16:43;;;;;;;34.15;21.05;;;;;;;21.11;100.00;101655.44;2614339;36;20045;-49
2022/07/21 08:19:12;;;;;;;34.25;20.00;;;;;;;21.07;100.00;101659.56;2615615;36;20042;-52
2022/07/21 08:21:40;;;;;;;33.58;20.60;;;;;;;21.17;100.00;101665.63;2614601;36;20038;-50
2022/07/21 08:24:14;;;;;;;33.10;20.60;;;;;;;21.03;100.00;101663.72;2615966;36;20846;-50
2022/07/21 08:26:42;;;;;;;34.08;20.45;;;;;;;20.87;100.00;101667.47;2615496;31;20527;-52
2022/07/21 08:29:10;;;;;;;32.08;21.10;;;;;;;20.54;100.00;101660.34;2615546;36;20042;-49
2022/07/21 08:31:39;;;;;;;34.72;21.05;;;;;;;20.33;100.00;101669.19;2614925;36;20034;-54
2022/07/21 08:34:07;;;;;;;37.97;19.20;;;;;;;20.34;100.00;101672.78;2615823;36;20034;-50
2022/07/21 08:36:37;;;;;;;33.60;20.98;;;;;;;20.22;100.00;101664.16;2615153;36;20030;-53
2022/07/21 08:39:05;;;;;;;43.13;23.00;;;;;;;20.09;100.00;101667.47;2616592;36;20432;-49
2022/07/21 08:41:38;;;;;;;38.72;22.33;;;;;;;20.17;100.00;101663.84;2615178;36;20035;-50
2022/07/21 08:44:07;;;;;;;38.47;21.75;;;;;;;20.05;100.00;101668.84;2616252;31;20443;-48
2022/07/21 08:46:36;;;;;;;38.40;22.80;;;;;;;20.11;100.00;101658.06;2614906;36;20069;-51
2022/07/21 08:49:05;;;;;;;42.53;23.80;;;;;;;19.99;100.00;101670.41;2616129;36;20027;-49
2022/07/21 08:51:35;;;;;;;33.22;21.70;;;;;;;20.04;100.00;101675.38;2615315;36;20042;-53
2022/07/21 08:54:05;;;;;;;43.92;23.63;;;;;;;20.12;100.00;101673.41;2615541;36;20038;-51
2022/07/21 08:56:36;;;;;;;38.85;21.95;;;;;;;20.11;100.00;101671.75;2614798;31;20069;-46
2022/07/21 08:59:05;;;;;;;42.67;25.58;;;;;;;20.09;100.00;101672.94;2615922;36;20034;-52
2022/07/21 09:01:33;;;;;;;41.55;23.92;;;;;;;19.93;100.00;101676.59;2614856;36;20038;-49
2022/07/21 09:04:21;;;;;;;47.58;24.77;;;;;;;19.93;100.00;101674.75;2615845;36;20038;-50
2022/07/21 09:06:56;;;;;;;48.05;24.90;;;;;;;19.96;100.00;101670.78;2614676;36;20081;-52
2022/07/21 09:09:24;;;;;;;42.38;25.58;;;;;;;20.18;100.00;101671.00;2614861;36;20053;-50
2022/07/21 09:11:56;;;;;;;45.78;26.27;;;;;;;20.10;100.00;101666.44;2614915;36;20069;-50
2022/07/21 09:14:26;;;;;;;41.45;25.55;;;;;;;20.11;100.00;101669.00;2615490;36;20042;-54
2022/07/21 09:16:57;;;;;;;43.58;24.90;;;;;;;20.11;100.00;101666.28;2614705;36;20065;-49
2022/07/21 09:19:28;;;;;;;48.20;25.88;;;;;;;20.01;100.00;101670.25;2616418;36;20444;-50
2022/07/21 09:21:59;;;;;;;38.08;21.35;;;;;;;19.91;100.00;101665.00;2615429;36;20436;-57
2022/07/21 09:24:33;;;;;;;45.33;24.33;;;;;;;19.71;100.00;101667.28;2615065;36;20069;-54
2022/07/21 09:27:10;;;;;;;42.65;22.75;;;;;;;19.68;100.00;101675.81;2615082;36;20042;-56
2022/07/21 09:29:43;;;;;;;38.08;21.20;;;;;;;19.76;100.00;101659.41;2615803;31;20827;-50
2022/07/21 09:32:26;;;;;;;33.97;20.05;;;;;;;19.59;100.00;101667.66;2614822;36;20570;-48
2022/07/21 09:34:57;;;;;;;36.25;20.00;;;;;;;19.51;100.00;101664.97;2615640;36;20034;-50
2022/07/21 09:37:25;;;;;;;37.22;19.95;;;;;;;19.56;100.00;101670.72;2614877;31;20038;-53
2022/07/21 09:39:55;;;;;;;38.00;20.90;;;;;;;19.63;100.00;101672.78;2615642;36;20038;-48
2022/07/21 09:42:30;;;;;;;38.50;20.70;;;;;;;19.52;100.00;101674.88;2615093;36;20039;-49
2022/07/21 09:44:59;;;;;;;41.70;20.90;;;;;;;19.64;100.00;101674.47;2615527;36;20122;-56
2022/07/21 09:47:30;;;;;;;40.78;21.48;;;;;;;19.50;100.00;101679.63;2615147;36;20026;-49
2022/07/21 09:50:00;;;;;;;44.45;24.77;;;;;;;19.34;100.00;101690.59;2615358;36;20051;-53
2022/07/21 09:52:32;;;;;;;41.47;22.88;;;;;;;19.39;100.00;101688.19;2615193;36;20065;-47
2022/07/21 09:55:03;;;;;;;42.83;22.52;;;;;;;19.52;100.00;101698.56;2615485;36;20563;-52
2022/07/21 09:57:34;;;;;;;43.65;22.73;;;;;;;19.46;100.00;101700.13;2615335;36;20061;-50
2022/07/21 10:00:03;;;;;;;40.13;22.02;;;;;;;19.55;100.00;101696.34;2615233;36;20602;-47
2022/07/21 10:02:33;;;;;;;43.17;22.25;;;;;;;19.51;100.00;101697.72;2614918;36;20031;-50
2022/07/21 10:05:05;;;;;;;39.60;21.42;;;;;;;19.56;100.00;101703.50;2615616;31;20038;-52
2022/07/21 10:07:34;;;;;;;39.53;20.98;;;;;;;19.41;100.00;101702.53;2615256;36;20056;-53
2022/07/21 10:10:03;;;;;;;40.22;21.08;;;;;;;19.42;100.00;101702.34;2615235;36;20038;-50
2022/07/21 10:12:35;;;;;;;36.40;20.65;;;;;;;19.50;100.00;101712.41;2615443;36;20527;-52
2022/07/21 10:15:03;;;;;;;34.95;18.95;;;;;;;19.59;100.00;101715.97;2615105;36;20038;-51
2022/07/21 10:17:32;;;;;;;26.17;15.77;;;;;;;19.56;100.00;101717.16;2614810;36;20038;-50
2022/07/21 10:20:08;;;;;;;21.67;13.82;;;;;;;19.73;100.00;101706.22;2616812;31;20555;-51
2022/07/21 10:22:58;;;;;;;19.83;11.93;;;;;;;19.93;100.00;101707.53;2615120;31;20030;-52
2022/07/21 10:25:27;;;;;;;17.13;10.60;;;;;;;20.10;100.00;101711.03;2615604;36;20042;-50
2022/07/21 10:28:20;;;;;;;14.52;9.82;;;;;;;20.16;100.00;101705.88;2615168;36;20035;-52
2022/07/21 10:30:54;;;;;;;13.00;9.52;;;;;;;20.23;100.00;101713.19;2616170;36;20035;-50
2022/07/21 10:33:44;;;;;;;12.13;8.32;;;;;;;20.16;100.00;101716.81;2613938;36;20130;-50
2022/07/21 10:36:45;;;;;;;8.93;6.65;;;;;;;20.27;100.00;101720.00;2613792;31;20081;-57
2022/07/21 10:39:25;;;;;;;8.35;6.20;;;;;;;20.19;100.00;101719.19;2615489;36;20031;-55
2022/07/21 10:41:58;;;;;;;9.07;5.90;;;;;;;20.46;100.00;101721.44;2615215;36;20459;-54
2022/07/21 10:44:45;;;;;;;7.05;5.50;;;;;;;20.51;100.00;101720.88;2615735;36;20034;-53
2022/07/21 10:47:16;;;;;;;7.28;5.50;;;;;;;20.61;100.00;101717.88;2614425;36;20030;-56
2022/07/21 10:49:47;;;;;;;6.03;4.90;;;;;;;20.77;100.00;101722.44;2615354;36;20037;-50
2022/07/21 10:52:49;;;;;;;7.32;5.55;;;;;;;20.68;100.00;101718.06;2614652;31;20034;-49
2022/07/21 10:55:26;;;;;;;7.68;5.20;;;;;;;20.55;100.00;101721.34;2615458;31;20049;-55
2022/07/21 10:58:14;;;;;;;5.68;4.82;;;;;;;20.13;100.00;101728.94;2614970;36;20174;-52
2022/07/21 11:00:47;;;;;;;4.88;4.10;;;;;;;20.15;100.00;101726.88;2615450;36;20027;-53
2022/07/21 11:03:18;;;;;;;4.88;3.78;;;;;;;20.08;100.00;101729.50;2614348;36;20034;-50
2022/07/21 11:06:18;;;;;;;3.85;3.45;;;;;;;20.00;100.00;101734.13;2614152;36;20041;-53
2022/07/21 11:08:48;;;;;;;4.38;3.70;;;;;;;20.09;100.00;101739.38;2614767;36;20595;-51
2022/07/21 11:11:22;;;;;;;4.72;3.88;;;;;;;20.08;100.00;101726.75;2614199;36;20100;-55
2022/07/21 11:14:05;;;;;;;4.47;3.42;;;;;;;20.11;100.00;101731.88;2614806;36;20081;-53
2022/07/21 11:17:09;;;;;;;4.63;3.47;;;;;;;20.34;100.00;101735.69;2614613;36;20511;-51
2022/07/21 11:19:41;;;;;;;6.35;4.20;;;;;;;20.66;100.00;101731.91;2615358;36;20093;-51
2022/07/21 11:22:13;;;;;;;7.13;5.40;;;;;;;20.57;100.00;101725.63;2614226;36;20679;-52
2022/07/21 11:24:42;;;;;;;6.32;4.80;;;;;;;21.05;100.00;101727.34;2615974;36;20463;-57